createdAt,value
2023-04-27T00:00:52.866Z,99303.58
2023-04-27T00:03:19.856Z,99308.33
2023-04-27T00:05:47.519Z,99308.15
2023-04-27T00:08:14.542Z,99314.51
2023-04-27T00:10:41.466Z,99313.52
2023-04-27T00:13:08.317Z,99313.16
2023-04-27T00:15:35.152Z,99314.03
2023-04-27T00:18:02.261Z,99316.62
2023-04-27T00:20:29.341Z,99322.02
2023-04-27T00:22:56.813Z,99326.88
2023-04-27T00:25:23.582Z,99328.91
2023-04-27T00:27:50.583Z,99331.36
2023-04-27T00:30:17.443Z,99326.34
2023-04-27T00:32:44.521Z,99323.84
2023-04-27T00:35:11.630Z,99332.97
2023-04-27T00:37:38.591Z,99341.34
2023-04-27T00:40:09.368Z,99346.85
2023-04-27T00:42:36.279Z,99345.27
2023-04-27T00:45:04.146Z,99346.44
2023-04-27T00:47:31.049Z,99350.98
2023-04-27T00:49:57.874Z,99356.65
2023-04-27T00:52:26.084Z,99356.30
2023-04-27T00:54:52.941Z,99355.15
2023-04-27T00:57:21.391Z,99353.81
2023-04-27T00:59:48.253Z,99351.63
2023-04-27T01:02:15.307Z,99351.61
2023-04-27T01:04:42.158Z,99360.31
2023-04-27T01:07:09.034Z,99358.56
2023-04-27T01:09:35.827Z,99357.91
2023-04-27T01:12:03.347Z,99351.69
2023-04-27T01:14:30.118Z,99349.47
2023-04-27T01:16:56.922Z,99355.02
2023-04-27T01:19:23.918Z,99355.48
2023-04-27T01:21:50.726Z,99351.58
2023-04-27T01:24:17.426Z,99351.95
2023-04-27T01:26:44.223Z,99347.99
2023-04-27T01:29:11.326Z,99351.83
2023-04-27T01:31:38.924Z,99344.41
2023-04-27T01:34:06.199Z,99349.30
2023-04-27T01:36:33.248Z,99352.13
2023-04-27T01:39:00.087Z,99353.62
2023-04-27T01:41:27.042Z,99354.48
2023-04-27T01:43:53.852Z,99349.84
2023-04-27T01:46:21.777Z,99348.91
2023-04-27T01:48:50.593Z,99353.13
2023-04-27T01:51:17.478Z,99354.19
2023-04-27T01:53:44.668Z,99356.59
2023-04-27T01:56:11.584Z,99363.69
2023-04-27T01:58:38.419Z,99365.91
2023-04-27T02:01:05.445Z,99365.02
2023-04-27T02:03:32.597Z,99372.52
2023-04-27T02:05:59.439Z,99369.73
2023-04-27T02:08:26.212Z,99373.95
2023-04-27T02:10:53.127Z,99377.12
2023-04-27T02:13:19.932Z,99381.69
2023-04-27T02:15:46.720Z,99381.83
2023-04-27T02:18:15.936Z,99384.11
2023-04-27T02:20:42.846Z,99383.61
2023-04-27T02:23:09.745Z,99388.80
2023-04-27T02:25:38.107Z,99393.73
2023-04-27T02:28:04.859Z,99391.62
2023-04-27T02:30:32.289Z,99394.22
2023-04-27T02:33:02.077Z,99396.02
2023-04-27T02:35:33.300Z,99393.86
2023-04-27T02:38:00.208Z,99398.48
2023-04-27T02:40:27.338Z,99398.96
2023-04-27T02:42:54.216Z,99403.85
2023-04-27T02:45:21.998Z,99403.30
2023-04-27T02:47:51.041Z,99411.44
2023-04-27T02:50:18.086Z,99415.42
2023-04-27T02:52:44.886Z,99408.59
2023-04-27T02:55:14.688Z,99414.34
2023-04-27T02:57:41.704Z,99407.61
2023-04-27T03:00:10.564Z,99412.60
2023-04-27T03:02:37.630Z,99410.54
2023-04-27T03:05:05.576Z,99408.85
2023-04-27T03:07:32.650Z,99413.98
2023-04-27T03:09:59.593Z,99417.39
2023-04-27T03:12:26.344Z,99421.10
2023-04-27T03:14:53.412Z,99424.38
2023-04-27T03:17:20.216Z,99433.48
2023-04-27T03:19:49.173Z,99438.73
2023-04-27T03:22:15.962Z,99437.84
2023-04-27T03:24:43.119Z,99436.65
2023-04-27T03:27:10.362Z,99439.45
2023-04-27T03:29:37.159Z,99437.79
2023-04-27T03:32:05.532Z,99441.31
2023-04-27T03:34:32.310Z,99444.16
2023-04-27T03:36:59.120Z,99443.90
2023-04-27T03:39:26.219Z,99443.48
2023-04-27T03:41:53.134Z,99445.17
2023-04-27T03:44:19.964Z,99447.89
2023-04-27T03:46:46.714Z,99448.31
2023-04-27T03:49:14.052Z,99449.86
2023-04-27T03:51:42.512Z,99455.92
2023-04-27T03:54:10.230Z,99455.52
2023-04-27T03:56:37.280Z,99452.30
2023-04-27T03:59:04.980Z,99455.88
2023-04-27T04:01:34.261Z,99459.46
2023-04-27T04:04:01.241Z,99458.94
2023-04-27T04:06:28.435Z,99465.89
2023-04-27T04:08:55.982Z,99466.25
2023-04-27T04:11:23.218Z,99465.89
2023-04-27T04:13:51.236Z,99465.13
2023-04-27T04:16:18.087Z,99466.63
2023-04-27T04:18:45.324Z,99462.46
2023-04-27T04:21:12.121Z,99465.70
2023-04-27T04:23:41.203Z,99462.70
2023-04-27T04:26:09.118Z,99460.94
2023-04-27T04:28:39.050Z,99461.90
2023-04-27T04:31:06.572Z,99462.65
2023-04-27T04:33:33.495Z,99464.21
2023-04-27T04:36:04.067Z,99465.10
2023-04-27T04:38:30.852Z,99461.50
2023-04-27T04:40:57.954Z,99463.83
2023-04-27T04:43:24.721Z,99462.23
2023-04-27T04:45:51.756Z,99465.71
2023-04-27T04:48:20.055Z,99469.45
2023-04-27T04:50:46.929Z,99472.49
2023-04-27T04:53:13.675Z,99474.63
2023-04-27T04:55:43.077Z,99477.73
2023-04-27T04:58:09.954Z,99477.59
2023-04-27T05:00:36.991Z,99478.27
2023-04-27T05:03:03.961Z,99483.73
2023-04-27T05:05:31.010Z,99485.23
2023-04-27T05:07:57.729Z,99481.94
2023-04-27T05:10:24.493Z,99490.70
2023-04-27T05:12:51.191Z,99490.45
2023-04-27T05:15:18.227Z,99490.77
2023-04-27T05:17:45.017Z,99491.08
2023-04-27T05:20:12.180Z,99496.09
2023-04-27T05:22:38.928Z,99490.91
2023-04-27T05:25:06.692Z,99489.23
2023-04-27T05:27:33.478Z,99491.29
2023-04-27T05:30:00.223Z,99491.64
2023-04-27T05:32:26.958Z,99492.16
2023-04-27T05:34:54.240Z,99493.27
2023-04-27T05:37:21.100Z,99496.61
2023-04-27T05:39:47.818Z,99503.30
2023-04-27T05:42:14.588Z,99500.88
2023-04-27T05:44:41.562Z,99503.98
2023-04-27T05:47:08.293Z,99505.76
2023-04-27T05:49:34.988Z,99507.77
2023-04-27T05:52:01.881Z,99505.20
2023-04-27T05:54:28.576Z,99505.11
2023-04-27T05:56:56.845Z,99508.30
2023-04-27T05:59:23.586Z,99506.13
2023-04-27T06:03:31.670Z,99521.77
2023-04-27T06:06:02.727Z,99519.08
2023-04-27T06:08:30.693Z,99520.91
2023-04-27T06:10:57.553Z,99524.86
2023-04-27T06:13:24.457Z,99521.44
2023-04-27T06:15:51.281Z,99523.70
2023-04-27T06:18:18.125Z,99526.82
2023-04-27T06:20:45.140Z,99529.19
2023-04-27T06:23:11.876Z,99531.25
2023-04-27T06:25:40.393Z,99529.63
2023-04-27T06:28:07.256Z,99530.39
2023-04-27T06:30:34.388Z,99528.27
2023-04-27T06:33:01.538Z,99528.83
2023-04-27T06:35:28.378Z,99534.00
2023-04-27T06:37:58.873Z,99533.42
2023-04-27T06:40:26.472Z,99536.66
2023-04-27T06:42:53.315Z,99542.92
2023-04-27T06:45:20.108Z,99539.99
2023-04-27T06:47:46.980Z,99540.26
2023-04-27T06:50:16.447Z,99544.09
2023-04-27T06:52:43.496Z,99542.72
2023-04-27T06:55:10.343Z,99546.79
2023-04-27T06:57:37.141Z,99546.36
2023-04-27T07:00:05.153Z,99551.70
2023-04-27T07:02:32.091Z,99556.33
2023-04-27T07:04:59.045Z,99557.23
2023-04-27T07:07:25.860Z,99555.43
2023-04-27T07:09:52.716Z,99559.60
2023-04-27T07:12:19.612Z,99562.95
2023-04-27T07:14:46.721Z,99567.05
2023-04-27T07:17:13.488Z,99566.65
2023-04-27T07:19:40.213Z,99567.85
2023-04-27T07:22:07.056Z,99570.50
2023-04-27T07:24:33.899Z,99570.34
2023-04-27T07:27:02.313Z,99566.92
2023-04-27T07:29:29.580Z,99570.66
2023-04-27T07:31:56.688Z,99575.02
2023-04-27T07:34:24.136Z,99574.48
2023-04-27T07:36:54.359Z,99573.50
2023-04-27T07:39:21.434Z,99576.83
2023-04-27T07:41:48.296Z,99574.63
2023-04-27T07:44:15.235Z,99579.94
2023-04-27T07:46:42.508Z,99581.56
2023-04-27T07:49:09.314Z,99583.88
2023-04-27T07:51:36.411Z,99584.95
2023-04-27T07:54:04.303Z,99583.23
2023-04-27T07:56:31.167Z,99585.02
2023-04-27T07:58:57.896Z,99582.91
2023-04-27T08:01:24.725Z,99585.89
2023-04-27T08:03:51.657Z,99587.88
2023-04-27T08:06:19.068Z,99591.43
2023-04-27T08:08:46.441Z,99597.61
2023-04-27T08:11:13.266Z,99598.52
2023-04-27T08:13:42.822Z,99601.91
2023-04-27T08:16:09.691Z,99608.27
2023-04-27T08:18:39.326Z,99607.67
2023-04-27T08:21:06.063Z,99612.66
2023-04-27T08:23:33.193Z,99614.72
2023-04-27T08:25:59.983Z,99616.63
2023-04-27T08:28:26.849Z,99620.46
2023-04-27T08:30:54.011Z,99615.14
2023-04-27T08:33:20.845Z,99620.29
2023-04-27T08:35:47.648Z,99617.36
2023-04-27T08:38:14.406Z,99616.69
2023-04-27T08:40:43.916Z,99614.41
2023-04-27T08:43:11.076Z,99616.02
2023-04-27T08:45:38.040Z,99613.75
2023-04-27T08:48:05.201Z,99613.27
2023-04-27T08:50:32.527Z,99613.87
2023-04-27T08:52:59.886Z,99612.30
2023-04-27T08:55:27.034Z,99611.79
2023-04-27T08:57:55.329Z,99614.85
2023-04-27T09:00:22.317Z,99617.55
2023-04-27T09:02:49.186Z,99618.28
2023-04-27T09:05:20.030Z,99617.57
2023-04-27T09:07:56.962Z,99614.50
2023-04-27T09:10:24.173Z,99612.83
2023-04-27T09:12:58.435Z,99615.20
2023-04-27T09:15:25.461Z,99615.08
2023-04-27T09:17:58.525Z,99609.14
2023-04-27T09:20:27.260Z,99607.06
2023-04-27T09:22:58.782Z,99606.02
2023-04-27T09:25:30.390Z,99603.07
2023-04-27T09:27:58.346Z,99599.63
2023-04-27T09:30:26.236Z,99600.29
2023-04-27T09:32:54.346Z,99601.52
2023-04-27T09:35:24.993Z,99607.60
2023-04-27T09:37:54.600Z,99608.77
2023-04-27T09:40:28.038Z,99609.03
2023-04-27T09:43:01.100Z,99607.15
2023-04-27T09:45:28.001Z,99606.67
2023-04-27T09:47:54.855Z,99605.52
2023-04-27T09:50:24.668Z,99608.70
2023-04-27T09:52:51.478Z,99603.57
2023-04-27T09:55:31.542Z,99607.86
2023-04-27T09:58:17.004Z,99607.47
2023-04-27T10:01:25.441Z,99611.80
2023-04-27T10:04:03.937Z,99613.15
2023-04-27T10:06:37.073Z,99615.19
2023-04-27T10:09:06.872Z,99618.79
2023-04-27T10:11:40.957Z,99621.03
2023-04-27T10:14:09.339Z,99619.13
2023-04-27T10:16:47.033Z,99620.85
2023-04-27T10:19:14.426Z,99618.74
2023-04-27T10:22:00.523Z,99621.50
2023-04-27T10:24:37.111Z,99614.79
2023-04-27T10:27:05.910Z,99617.23
2023-04-27T10:29:42.834Z,99623.14
2023-04-27T10:32:19.338Z,99627.26
2023-04-27T10:34:47.664Z,99631.18
2023-04-27T10:37:14.954Z,99632.08
2023-04-27T10:39:49.089Z,99631.95
2023-04-27T10:42:27.423Z,99637.30
2023-04-27T10:44:56.876Z,99638.77
2023-04-27T10:47:24.693Z,99641.27
2023-04-27T10:49:54.594Z,99639.84
2023-04-27T10:52:21.394Z,99646.53
2023-04-27T10:54:48.202Z,99645.21
2023-04-27T10:57:14.966Z,99645.70
2023-04-27T10:59:51.008Z,99647.40
2023-04-27T11:02:19.333Z,99645.81
2023-04-27T11:04:47.014Z,99653.87
2023-04-27T11:07:26.687Z,99653.76
2023-04-27T11:09:53.806Z,99657.45
2023-04-27T11:12:21.630Z,99659.76
2023-04-27T11:14:48.403Z,99656.65
2023-04-27T11:17:15.197Z,99657.26
2023-04-27T11:19:48.292Z,99655.70
2023-04-27T11:22:18.877Z,99656.39
2023-04-27T11:24:50.407Z,99657.80
2023-04-27T11:27:18.051Z,99656.57
2023-04-27T11:29:45.121Z,99659.20
2023-04-27T11:32:22.079Z,99661.33
2023-04-27T11:34:56.616Z,99662.60
2023-04-27T11:37:26.699Z,99664.71
2023-04-27T11:39:57.744Z,99662.88
2023-04-27T11:42:25.524Z,99667.87
2023-04-27T11:44:57.293Z,99666.54
2023-04-27T11:47:25.358Z,99665.52
2023-04-27T11:49:55.100Z,99665.45
2023-04-27T11:52:23.029Z,99667.23
2023-04-27T11:54:51.126Z,99666.98
2023-04-27T11:57:17.942Z,99667.80
2023-04-27T11:59:44.754Z,99668.36
2023-04-27T12:02:11.919Z,99669.12
2023-04-27T12:04:38.834Z,99669.76
2023-04-27T12:07:05.649Z,99668.95
2023-04-27T12:09:32.387Z,99672.09
2023-04-27T12:11:59.194Z,99669.61
2023-04-27T12:14:25.984Z,99668.04
2023-04-27T12:16:53.098Z,99665.36
2023-04-27T12:19:19.859Z,99669.95
2023-04-27T12:21:46.773Z,99670.11
2023-04-27T12:24:13.719Z,99669.08
2023-04-27T12:26:40.965Z,99668.87
2023-04-27T12:29:07.780Z,99670.86
2023-04-27T12:31:34.738Z,99666.09
2023-04-27T12:34:01.638Z,99673.84
2023-04-27T12:36:28.748Z,99680.20
2023-04-27T12:38:59.822Z,99680.46
2023-04-27T12:41:26.758Z,99682.70
2023-04-27T12:43:53.675Z,99686.96
2023-04-27T12:46:20.620Z,99688.31
2023-04-27T12:48:47.514Z,99688.69
2023-04-27T12:51:14.741Z,99686.07
2023-04-27T12:53:41.518Z,99688.14
2023-04-27T12:56:08.661Z,99688.76
2023-04-27T12:58:35.568Z,99686.89
2023-04-27T13:01:02.352Z,99691.46
2023-04-27T13:03:29.312Z,99688.05
2023-04-27T13:05:56.308Z,99691.77
2023-04-27T13:08:23.131Z,99689.27
2023-04-27T13:10:50.132Z,99689.61
2023-04-27T13:13:16.998Z,99692.38
2023-04-27T13:15:44.086Z,99690.80
2023-04-27T13:18:11.583Z,99696.66
2023-04-27T13:20:38.549Z,99699.27
2023-04-27T13:23:05.929Z,99703.95
2023-04-27T13:25:32.641Z,99706.20
2023-04-27T13:27:59.388Z,99705.27
2023-04-27T13:30:26.207Z,99704.23
2023-04-27T13:32:53.401Z,99707.92
2023-04-27T13:35:23.833Z,99708.27
2023-04-27T13:37:53.396Z,99711.45
2023-04-27T13:40:21.592Z,99709.73
2023-04-27T13:42:48.406Z,99713.72
2023-04-27T13:45:15.416Z,99707.70
2023-04-27T13:47:42.342Z,99707.67
2023-04-27T13:50:10.682Z,99711.98
2023-04-27T13:52:37.772Z,99710.45
2023-04-27T13:55:05.246Z,99709.08
2023-04-27T13:57:32.087Z,99706.54
2023-04-27T14:00:01.765Z,99710.98
2023-04-27T14:02:33.946Z,99708.05
2023-04-27T14:05:01.107Z,99710.48
2023-04-27T14:07:28.276Z,99719.30
2023-04-27T14:09:55.154Z,99720.25
2023-04-27T14:12:21.987Z,99723.59
2023-04-27T14:14:48.820Z,99724.44
2023-04-27T14:17:15.678Z,99728.73
2023-04-27T14:19:43.393Z,99729.64
2023-04-27T14:22:10.123Z,99736.53
2023-04-27T14:24:39.028Z,99742.34
2023-04-27T14:27:05.813Z,99742.13
2023-04-27T14:29:32.535Z,99740.58
2023-04-27T14:31:59.366Z,99744.87
2023-04-27T14:34:26.769Z,99751.39
2023-04-27T14:36:53.795Z,99749.66
2023-04-27T14:39:21.658Z,99751.38
2023-04-27T14:41:48.653Z,99747.26
2023-04-27T14:44:16.123Z,99745.73
2023-04-27T14:46:43.043Z,99752.45
2023-04-27T14:49:09.957Z,99751.21
2023-04-27T14:51:36.788Z,99751.47
2023-04-27T14:54:04.562Z,99753.50
2023-04-27T14:56:31.436Z,99759.52
2023-04-27T14:58:58.212Z,99760.84
2023-04-27T15:01:25.052Z,99756.40
2023-04-27T15:03:53.316Z,99757.25
2023-04-27T15:06:21.873Z,99753.20
2023-04-27T15:08:48.657Z,99753.73
2023-04-27T15:11:15.677Z,99752.02
2023-04-27T15:13:42.534Z,99762.78
2023-04-27T15:16:09.956Z,99756.93
2023-04-27T15:18:37.143Z,99751.73
2023-04-27T15:21:04.715Z,99746.77
2023-04-27T15:23:31.698Z,99744.92
2023-04-27T15:25:58.609Z,99746.39
2023-04-27T15:28:25.537Z,99747.71
2023-04-27T15:30:56.303Z,99746.94
2023-04-27T15:33:23.233Z,99748.87
2023-04-27T15:35:50.116Z,99754.45
2023-04-27T15:38:18.149Z,99763.02
2023-04-27T15:40:45.060Z,99764.39
2023-04-27T15:43:11.989Z,99769.28
2023-04-27T15:45:38.931Z,99773.60
2023-04-27T15:48:06.182Z,99772.83
2023-04-27T15:50:33.134Z,99777.24
2023-04-27T15:52:59.926Z,99778.77
2023-04-27T15:55:26.721Z,99782.83
2023-04-27T15:57:53.620Z,99785.75
2023-04-27T16:00:22.550Z,99788.38
2023-04-27T16:02:49.838Z,99791.55
2023-04-27T16:05:17.244Z,99793.06
2023-04-27T16:07:44.469Z,99797.98
2023-04-27T16:10:11.785Z,99798.58
2023-04-27T16:12:38.863Z,99807.68
2023-04-27T16:15:08.026Z,99806.79
2023-04-27T16:17:37.391Z,99811.45
2023-04-27T16:20:08.124Z,99812.23
2023-04-27T16:22:35.536Z,99812.12
2023-04-27T16:25:02.956Z,99808.50
2023-04-27T16:27:29.970Z,99803.71
2023-04-27T16:29:57.226Z,99802.67
2023-04-27T16:32:24.284Z,99802.77
2023-04-27T16:34:51.441Z,99797.61
2023-04-27T16:37:18.335Z,99799.35
2023-04-27T16:39:45.311Z,99799.48
2023-04-27T16:42:16.443Z,99800.09
2023-04-27T16:44:43.331Z,99800.41
2023-04-27T16:47:10.112Z,99798.67
2023-04-27T16:49:37.854Z,99797.64
2023-04-27T16:52:04.870Z,99803.05
2023-04-27T16:54:32.032Z,99800.70
2023-04-27T16:56:59.115Z,99806.38
2023-04-27T16:59:25.951Z,99808.14
2023-04-27T17:01:53.299Z,99812.52
2023-04-27T17:04:20.282Z,99815.92
2023-04-27T17:06:48.927Z,99819.47
2023-04-27T17:09:16.668Z,99823.02
2023-04-27T17:11:44.081Z,99829.41
2023-04-27T17:14:11.003Z,99833.67
2023-04-27T17:16:37.840Z,99833.54
2023-04-27T17:19:04.689Z,99830.96
2023-04-27T17:21:31.665Z,99832.56
2023-04-27T17:23:58.551Z,99833.23
2023-04-27T17:26:25.833Z,99835.35
2023-04-27T17:28:53.199Z,99840.32
2023-04-27T17:31:20.478Z,99846.67
2023-04-27T17:33:47.506Z,99848.11
2023-04-27T17:36:15.160Z,99852.23
2023-04-27T17:38:42.278Z,99858.41
2023-04-27T17:41:09.006Z,99863.44
2023-04-27T17:43:37.733Z,99860.35
2023-04-27T17:46:09.742Z,99861.19
2023-04-27T17:48:37.508Z,99861.75
2023-04-27T17:51:04.398Z,99863.35
2023-04-27T17:53:31.255Z,99860.91
2023-04-27T17:55:58.070Z,99863.02
2023-04-27T17:58:24.888Z,99859.38
2023-04-27T18:00:51.852Z,99855.59
2023-04-27T18:03:18.996Z,99857.34
2023-04-27T18:05:46.191Z,99862.77
2023-04-27T18:08:13.147Z,99861.64
2023-04-27T18:10:39.872Z,99870.24
2023-04-27T18:13:06.888Z,99870.86
2023-04-27T18:15:34.024Z,99871.34
2023-04-27T18:20:12.362Z,99882.27
2023-04-27T18:22:40.284Z,99877.99
2023-04-27T18:25:11.101Z,99875.66
2023-04-27T18:27:38.015Z,99874.73
2023-04-27T18:30:06.316Z,99874.06
2023-04-27T18:32:33.855Z,99874.44
2023-04-27T18:35:00.752Z,99877.27
2023-04-27T18:37:27.648Z,99881.23
2023-04-27T18:39:55.176Z,99884.92
2023-04-27T18:42:24.431Z,99884.91
2023-04-27T18:44:54.817Z,99885.48
2023-04-27T18:47:21.923Z,99887.58
2023-04-27T18:49:48.820Z,99888.73
2023-04-27T18:52:15.917Z,99888.01
2023-04-27T18:54:43.380Z,99887.35
2023-04-27T18:57:10.133Z,99885.56
2023-04-27T18:59:40.166Z,99883.97
2023-04-27T19:02:07.247Z,99888.69
2023-04-27T19:04:34.688Z,99887.75
2023-04-27T19:07:01.998Z,99894.77
2023-04-27T19:09:29.111Z,99898.42
2023-04-27T19:12:02.764Z,99900.74
2023-04-27T19:14:31.586Z,99904.54
2023-04-27T19:16:58.505Z,99906.74
2023-04-27T19:19:26.766Z,99907.17
2023-04-27T19:21:54.479Z,99904.20
2023-04-27T19:24:21.618Z,99909.52
2023-04-27T19:26:48.545Z,99908.30
2023-04-27T19:29:15.956Z,99908.95
2023-04-27T19:31:43.375Z,99913.94
2023-04-27T19:34:10.310Z,99916.11
2023-04-27T19:36:37.174Z,99914.95
2023-04-27T19:39:04.067Z,99915.92
2023-04-27T19:41:30.932Z,99919.02
2023-04-27T19:43:57.947Z,99918.46
2023-04-27T19:46:24.897Z,99914.73
2023-04-27T19:48:53.323Z,99918.38
2023-04-27T19:51:20.160Z,99926.83
2023-04-27T19:53:46.985Z,99925.39
2023-04-27T19:56:13.846Z,99932.54
2023-04-27T19:58:40.817Z,99931.02
2023-04-27T20:01:07.783Z,99938.39
2023-04-27T20:03:35.839Z,99944.02
2023-04-27T20:06:03.524Z,99944.66
2023-04-27T20:08:30.688Z,99944.55
2023-04-27T20:10:57.722Z,99948.70
2023-04-27T20:13:24.599Z,99945.16
2023-04-27T20:15:52.346Z,99948.23
2023-04-27T20:18:19.329Z,99944.04
2023-04-27T20:20:46.234Z,99943.23
2023-04-27T20:23:13.068Z,99945.74
2023-04-27T20:25:39.805Z,99948.10
2023-04-27T20:28:06.674Z,99950.23
2023-04-27T20:30:33.702Z,99947.80
2023-04-27T20:33:01.740Z,99949.48
2023-04-27T20:35:28.551Z,99950.25
2023-04-27T20:37:55.273Z,99950.38
2023-04-27T20:40:22.456Z,99951.88
2023-04-27T20:42:49.786Z,99953.81
2023-04-27T20:45:17.580Z,99956.50
2023-04-27T20:47:44.730Z,99957.48
2023-04-27T20:50:11.973Z,99958.26
2023-04-27T20:52:38.897Z,99954.05
2023-04-27T20:55:06.667Z,99950.36
2023-04-27T20:57:33.432Z,99951.75
2023-04-27T21:00:00.347Z,99954.11
2023-04-27T21:02:27.437Z,99956.20
2023-04-27T21:04:54.614Z,99958.59
2023-04-27T21:07:21.563Z,99959.13
2023-04-27T21:09:48.417Z,99956.35
2023-04-27T21:12:17.321Z,99953.26
2023-04-27T21:14:44.643Z,99952.42
2023-04-27T21:17:11.526Z,99952.83
2023-04-27T21:19:38.302Z,99954.88
2023-04-27T21:22:05.168Z,99959.99
2023-04-27T21:24:32.212Z,99961.34
2023-04-27T21:26:59.310Z,99959.67
2023-04-27T21:29:28.011Z,99963.77
2023-04-27T21:31:54.957Z,99964.73
2023-04-27T21:34:21.927Z,99968.04
2023-04-27T21:36:48.873Z,99967.76
2023-04-27T21:39:16.113Z,99966.06
2023-04-27T21:41:43.460Z,99968.46
2023-04-27T21:44:10.654Z,99964.73
2023-04-27T21:46:37.727Z,99964.35
2023-04-27T21:49:05.003Z,99962.30
2023-04-27T21:51:34.574Z,99957.52
2023-04-27T21:54:01.808Z,99952.84
2023-04-27T21:56:29.023Z,99953.09
2023-04-27T21:58:56.066Z,99946.89
2023-04-27T22:01:23.589Z,99945.63
2023-04-27T22:03:50.835Z,99943.02
2023-04-27T22:06:18.142Z,99941.34
2023-04-27T22:08:45.410Z,99937.92
2023-04-27T22:11:12.422Z,99940.64
2023-04-27T22:13:39.558Z,99944.54
2023-04-27T22:16:06.551Z,99950.00
2023-04-27T22:18:33.664Z,99952.80
2023-04-27T22:21:00.610Z,99957.69
2023-04-27T22:23:31.271Z,99959.55
2023-04-27T22:25:58.251Z,99959.02
2023-04-27T22:28:25.134Z,99955.96
2023-04-27T22:30:52.008Z,99950.49
2023-04-27T22:33:19.040Z,99944.73
2023-04-27T22:35:46.196Z,99936.28
2023-04-27T22:38:13.581Z,99932.95
2023-04-27T22:40:40.986Z,99936.65
2023-04-27T22:43:08.106Z,99942.80
2023-04-27T22:45:37.357Z,99946.55
2023-04-27T22:48:05.835Z,99945.52
2023-04-27T22:50:32.825Z,99946.47
2023-04-27T22:53:01.168Z,99942.84
2023-04-27T22:55:28.435Z,99940.95
2023-04-27T22:57:55.207Z,99946.02
2023-04-27T23:00:22.291Z,99949.36
2023-04-27T23:02:49.793Z,99941.59
2023-04-27T23:05:17.056Z,99942.48
2023-04-27T23:07:44.411Z,99941.15
2023-04-27T23:10:13.032Z,99943.64
2023-04-27T23:12:39.873Z,99946.58
2023-04-27T23:15:08.086Z,99945.65
2023-04-27T23:17:36.049Z,99941.58
2023-04-27T23:20:11.220Z,99939.70
2023-04-27T23:22:44.267Z,99935.05
2023-04-27T23:25:11.516Z,99933.40
2023-04-27T23:27:38.642Z,99935.48
2023-04-27T23:30:06.777Z,99932.63
2023-04-27T23:32:35.395Z,99934.70
2023-04-27T23:35:02.539Z,99935.09
2023-04-27T23:37:32.396Z,99933.14
2023-04-27T23:40:03.008Z,99937.02
2023-04-27T23:42:30.375Z,99932.39
2023-04-27T23:44:57.714Z,99938.73
2023-04-27T23:47:24.890Z,99938.79
2023-04-27T23:49:52.662Z,99937.55
2023-04-27T23:52:20.283Z,99943.32
2023-04-27T23:54:47.439Z,99943.36
2023-04-27T23:57:15.291Z,99944.31
2023-04-27T23:59:42.272Z,99946.66
